createdAt,value
2019-02-11T00:00:54.143Z,5.00
2019-02-11T00:03:23.204Z,5.00
2019-02-11T00:05:52.658Z,5.00
2019-02-11T00:08:21.645Z,5.00
2019-02-11T00:10:55.150Z,5.00
2019-02-11T00:13:26.366Z,5.00
2019-02-11T00:15:55.231Z,5.00
2019-02-11T00:18:24.412Z,5.10
2019-02-11T00:20:54.838Z,5.10
2019-02-11T00:23:24.138Z,5.20
2019-02-11T00:25:53.242Z,5.20
2019-02-11T00:28:22.055Z,5.20
2019-02-11T00:30:50.918Z,5.20
2019-02-11T00:33:20.000Z,5.20
2019-02-11T00:35:49.253Z,5.20
2019-02-11T00:38:18.110Z,5.20
2019-02-11T00:40:46.967Z,5.20
2019-02-11T00:43:19.172Z,5.20
2019-02-11T00:45:46.426Z,5.20
2019-02-11T00:48:15.333Z,5.20
2019-02-11T00:50:44.278Z,5.20
2019-02-11T00:53:13.090Z,5.20
2019-02-11T00:55:41.918Z,5.20
2019-02-11T00:58:10.813Z,5.20
2019-02-11T01:00:39.879Z,5.20
2019-02-11T01:03:08.711Z,5.20
2019-02-11T01:05:37.810Z,5.20
2019-02-11T01:08:06.637Z,5.30
2019-02-11T01:10:35.463Z,5.30
2019-02-11T01:13:04.582Z,5.30
2019-02-11T01:15:33.646Z,5.30
2019-02-11T01:18:03.352Z,5.30
2019-02-11T01:20:32.418Z,5.30
2019-02-11T01:23:01.332Z,5.40
2019-02-11T01:25:30.139Z,5.40
2019-02-11T01:27:59.279Z,5.40
2019-02-11T01:30:28.210Z,5.40
2019-02-11T01:32:57.084Z,5.40
2019-02-11T01:35:25.892Z,5.40
2019-02-11T01:37:55.275Z,5.40
2019-02-11T01:40:24.296Z,5.40
2019-02-11T01:42:53.371Z,5.40
2019-02-11T01:45:22.163Z,5.50
2019-02-11T01:47:51.054Z,5.50
2019-02-11T01:50:19.817Z,5.50
2019-02-11T01:52:48.882Z,5.50
2019-02-11T01:55:17.963Z,5.50
2019-02-11T01:57:47.068Z,5.50
2019-02-11T02:00:15.843Z,5.50
2019-02-11T02:02:44.680Z,5.50
2019-02-11T02:05:13.531Z,5.50
2019-02-11T02:07:42.413Z,5.50
2019-02-11T02:10:13.231Z,5.50
2019-02-11T02:12:42.308Z,5.40
2019-02-11T02:15:12.348Z,5.40
2019-02-11T02:17:41.770Z,5.40
2019-02-11T02:20:12.666Z,5.30
2019-02-11T02:22:42.759Z,5.30
2019-02-11T02:25:11.676Z,5.30
2019-02-11T02:27:40.549Z,5.30
2019-02-11T02:30:10.665Z,5.30
2019-02-11T02:32:39.731Z,5.30
2019-02-11T02:35:08.657Z,5.30
2019-02-11T02:37:37.459Z,5.30
2019-02-11T02:40:06.395Z,5.20
2019-02-11T02:42:35.219Z,5.20
2019-02-11T02:45:04.358Z,5.20
2019-02-11T02:47:33.154Z,5.30
2019-02-11T02:50:02.228Z,5.30
2019-02-11T02:52:31.350Z,5.30
2019-02-11T02:55:00.453Z,5.30
2019-02-11T02:57:29.279Z,5.30
2019-02-11T02:59:58.581Z,5.30
2019-02-11T03:02:27.414Z,5.40
2019-02-11T03:04:56.537Z,5.40
2019-02-11T03:07:25.734Z,5.40
2019-02-11T03:09:54.532Z,5.40
2019-02-11T03:12:23.357Z,5.50
2019-02-11T03:14:53.583Z,5.50
2019-02-11T03:17:22.675Z,5.50
2019-02-11T03:19:51.776Z,5.50
2019-02-11T03:22:20.731Z,5.50
2019-02-11T03:24:49.798Z,5.50
2019-02-11T03:27:18.636Z,5.60
2019-02-11T03:29:47.446Z,5.50
2019-02-11T03:32:16.316Z,5.60
2019-02-11T03:34:45.672Z,5.60
2019-02-11T03:37:14.571Z,5.60
2019-02-11T03:39:43.376Z,5.60
2019-02-11T03:42:12.634Z,5.60
2019-02-11T03:44:41.476Z,5.60
2019-02-11T03:47:10.630Z,5.70
2019-02-11T03:49:39.394Z,5.60
2019-02-11T03:52:08.265Z,5.60
2019-02-11T03:54:37.463Z,5.60
2019-02-11T03:57:06.263Z,5.60
2019-02-11T03:59:35.050Z,5.60
2019-02-11T04:02:04.197Z,5.60
2019-02-11T04:04:32.973Z,5.60
2019-02-11T04:07:01.751Z,5.60
2019-02-11T04:09:30.842Z,5.60
2019-02-11T04:11:59.707Z,5.60
2019-02-11T04:14:28.492Z,5.60
2019-02-11T04:16:57.553Z,5.60
2019-02-11T04:19:26.386Z,5.60
2019-02-11T04:22:08.682Z,5.60
2019-02-11T04:24:37.770Z,5.60
2019-02-11T04:27:06.741Z,5.60
2019-02-11T04:29:35.624Z,5.60
2019-02-11T04:32:04.654Z,5.60
2019-02-11T04:34:33.562Z,5.60
2019-02-11T04:37:02.362Z,5.60
2019-02-11T04:39:31.697Z,5.60
2019-02-11T04:42:00.482Z,5.60
2019-02-11T04:44:34.081Z,5.60
2019-02-11T04:47:00.330Z,5.50
2019-02-11T04:49:29.395Z,5.50
2019-02-11T04:51:58.995Z,5.50
2019-02-11T04:54:28.193Z,5.50
2019-02-11T04:56:57.298Z,5.50
2019-02-11T04:59:26.159Z,5.50
2019-02-11T05:01:55.229Z,5.40
2019-02-11T05:04:24.336Z,5.40
2019-02-11T05:06:53.199Z,5.40
2019-02-11T05:09:21.972Z,5.40
2019-02-11T05:11:50.762Z,5.40
2019-02-11T05:14:19.661Z,5.40
2019-02-11T05:16:48.520Z,5.40
2019-02-11T05:19:17.337Z,5.40
2019-02-11T05:21:46.194Z,5.40
2019-02-11T05:24:15.290Z,5.40
2019-02-11T05:26:44.277Z,5.40
2019-02-11T05:29:13.462Z,5.40
2019-02-11T05:31:42.814Z,5.40
2019-02-11T05:34:12.406Z,5.50
2019-02-11T05:36:41.865Z,5.50
2019-02-11T05:39:10.717Z,5.50
2019-02-11T05:41:39.703Z,5.50
2019-02-11T05:44:08.817Z,5.50
2019-02-11T05:46:37.795Z,5.50
2019-02-11T05:49:06.743Z,5.50
2019-02-11T05:51:35.734Z,5.50
2019-02-11T05:54:04.927Z,5.50
2019-02-11T05:56:34.726Z,5.50
2019-02-11T05:59:03.583Z,5.50
2019-02-11T06:01:32.748Z,5.50
2019-02-11T06:04:01.903Z,5.50
2019-02-11T06:06:31.115Z,5.50
2019-02-11T06:09:00.094Z,5.50
2019-02-11T06:11:29.219Z,5.50
2019-02-11T06:13:58.289Z,5.50
2019-02-11T06:16:27.104Z,5.50
2019-02-11T06:18:55.996Z,5.50
2019-02-11T06:21:24.806Z,5.50
2019-02-11T06:23:53.592Z,5.50
2019-02-11T06:26:22.998Z,5.50
2019-02-11T06:28:51.809Z,5.50
2019-02-11T06:31:20.854Z,5.50
2019-02-11T06:33:49.966Z,5.60
2019-02-11T06:36:18.779Z,5.50
2019-02-11T06:38:47.584Z,5.50
2019-02-11T06:41:16.615Z,5.50
2019-02-11T06:43:45.859Z,5.50
2019-02-11T06:46:14.773Z,5.50
2019-02-11T06:48:43.895Z,5.50
2019-02-11T06:51:13.084Z,5.50
2019-02-11T06:53:42.457Z,5.50
2019-02-11T06:56:11.695Z,5.50
2019-02-11T06:58:40.861Z,5.50
2019-02-11T07:01:09.813Z,5.50
2019-02-11T07:03:39.447Z,5.50
2019-02-11T07:06:08.227Z,5.50
2019-02-11T07:08:37.026Z,5.50
2019-02-11T07:11:05.900Z,5.50
2019-02-11T07:13:34.725Z,5.50
2019-02-11T07:16:04.450Z,5.50
2019-02-11T07:18:35.624Z,5.50
2019-02-11T07:21:04.851Z,5.50
2019-02-11T07:23:33.682Z,5.50
2019-02-11T07:26:02.922Z,5.50
2019-02-11T07:28:31.870Z,5.50
2019-02-11T07:31:00.982Z,5.60
2019-02-11T07:33:32.664Z,5.50
2019-02-11T07:36:01.816Z,5.50
2019-02-11T07:38:30.620Z,5.60
2019-02-11T07:40:59.959Z,5.60
2019-02-11T07:43:42.688Z,5.60
2019-02-11T07:46:42.437Z,5.60
2019-02-11T07:49:11.263Z,5.60
2019-02-11T07:51:42.378Z,5.60
2019-02-11T07:54:12.228Z,5.60
2019-02-11T07:56:41.225Z,5.60
2019-02-11T07:59:10.380Z,5.60
2019-02-11T08:01:39.525Z,5.70
2019-02-11T08:04:08.374Z,5.70
2019-02-11T08:06:37.176Z,5.70
2019-02-11T08:09:07.994Z,5.70
2019-02-11T08:11:37.074Z,5.80
2019-02-11T08:14:05.970Z,5.80
2019-02-11T08:16:35.318Z,5.80
2019-02-11T08:19:04.527Z,5.80
2019-02-11T08:21:33.576Z,5.80
2019-02-11T08:24:02.757Z,5.90
2019-02-11T08:26:31.655Z,5.90
2019-02-11T08:29:00.719Z,5.90
2019-02-11T08:31:29.524Z,6.00
2019-02-11T08:33:58.352Z,6.00
2019-02-11T08:36:27.509Z,6.00
2019-02-11T08:38:56.327Z,6.00
2019-02-11T08:41:25.178Z,6.00
2019-02-11T08:43:53.995Z,6.00
2019-02-11T08:46:22.888Z,6.00
2019-02-11T08:48:51.731Z,6.00
2019-02-11T08:51:20.585Z,6.10
2019-02-11T08:53:49.427Z,6.10
2019-02-11T08:56:18.295Z,6.10
2019-02-11T08:58:47.113Z,6.10
2019-02-11T09:01:16.179Z,6.10
2019-02-11T09:03:45.318Z,6.10
2019-02-11T09:06:14.674Z,6.10
2019-02-11T09:08:43.785Z,6.00
2019-02-11T09:11:12.563Z,6.10
2019-02-11T09:13:41.661Z,6.10
2019-02-11T09:16:10.819Z,6.10
2019-02-11T09:18:40.898Z,6.10
2019-02-11T09:21:11.504Z,6.10
2019-02-11T09:23:41.472Z,6.20
2019-02-11T09:26:13.166Z,6.20
2019-02-11T09:28:41.876Z,6.30
2019-02-11T09:31:11.237Z,6.30
2019-02-11T09:33:40.602Z,6.40
2019-02-11T09:36:10.493Z,6.40
2019-02-11T09:38:42.440Z,6.50
2019-02-11T09:41:12.357Z,6.50
2019-02-11T09:43:41.849Z,6.60
2019-02-11T09:46:11.673Z,6.60
2019-02-11T09:48:41.528Z,6.70
2019-02-11T09:51:12.459Z,6.70
2019-02-11T09:53:41.655Z,6.70
2019-02-11T09:56:10.811Z,6.70
2019-02-11T09:58:40.165Z,6.70
2019-02-11T10:01:09.069Z,6.70
2019-02-11T10:03:38.134Z,6.70
2019-02-11T10:06:07.032Z,6.70
2019-02-11T10:08:36.243Z,6.70
2019-02-11T10:11:05.622Z,6.80
2019-02-11T10:13:34.502Z,6.80
2019-02-11T10:16:03.328Z,6.80
2019-02-11T10:18:32.151Z,6.90
2019-02-11T10:21:01.564Z,6.90
2019-02-11T10:23:30.639Z,6.90
2019-02-11T10:25:59.728Z,6.90
2019-02-11T10:28:28.589Z,6.90
2019-02-11T10:30:57.412Z,6.90
2019-02-11T10:33:26.343Z,6.90
2019-02-11T10:35:55.295Z,6.90
2019-02-11T10:38:24.507Z,7.00
2019-02-11T10:40:53.396Z,7.00
2019-02-11T10:43:22.223Z,7.10
2019-02-11T10:45:51.395Z,7.20
2019-02-11T10:48:20.374Z,7.30
2019-02-11T10:50:49.328Z,7.30
2019-02-11T10:53:19.071Z,7.30
2019-02-11T10:55:48.007Z,7.30
2019-02-11T10:58:18.436Z,7.40
2019-02-11T11:00:48.845Z,7.40
2019-02-11T11:03:17.696Z,7.40
2019-02-11T11:05:46.814Z,7.40
2019-02-11T11:08:15.708Z,7.40
2019-02-11T11:10:44.903Z,7.40
2019-02-11T11:13:14.442Z,7.40
2019-02-11T11:15:43.227Z,7.50
2019-02-11T11:18:12.022Z,7.50
2019-02-11T11:20:40.804Z,7.50
2019-02-11T11:23:09.882Z,7.40
2019-02-11T11:25:38.740Z,7.30
2019-02-11T11:28:07.834Z,7.30
2019-02-11T11:30:39.021Z,7.20
2019-02-11T11:33:08.134Z,7.20
2019-02-11T11:35:37.176Z,7.10
2019-02-11T11:38:06.344Z,7.10
2019-02-11T11:40:35.161Z,7.20
2019-02-11T11:43:04.306Z,7.30
2019-02-11T11:45:33.333Z,7.40
2019-02-11T11:48:07.757Z,7.40
2019-02-11T11:50:36.528Z,7.40
2019-02-11T11:53:06.233Z,7.40
2019-02-11T11:55:35.847Z,7.40
2019-02-11T11:58:11.523Z,7.50
2019-02-11T12:00:42.525Z,7.50
2019-02-11T12:03:20.669Z,7.50
2019-02-11T12:05:51.308Z,7.50
2019-02-11T12:08:21.144Z,7.50
2019-02-11T12:10:51.226Z,7.40
2019-02-11T12:13:24.221Z,7.40
2019-02-11T12:15:53.926Z,7.40
2019-02-11T12:18:23.720Z,7.40
2019-02-11T12:20:53.362Z,7.40
2019-02-11T12:23:22.826Z,7.30
2019-02-11T12:25:51.913Z,7.30
2019-02-11T12:28:20.713Z,7.30
2019-02-11T12:30:53.395Z,7.30
2019-02-11T12:33:21.047Z,7.30
2019-02-11T12:35:51.019Z,7.30
2019-02-11T12:38:20.565Z,7.40
2019-02-11T12:40:50.398Z,7.40
2019-02-11T12:43:20.671Z,7.40
2019-02-11T12:45:52.141Z,7.30
2019-02-11T12:48:22.127Z,7.30
2019-02-11T12:50:50.917Z,7.30
2019-02-11T12:53:19.734Z,7.20
2019-02-11T12:55:48.520Z,7.10
2019-02-11T12:58:17.329Z,7.10
2019-02-11T13:00:46.198Z,7.10
2019-02-11T13:03:15.223Z,7.20
2019-02-11T13:05:46.285Z,7.20
2019-02-11T13:08:14.647Z,7.20
2019-02-11T13:10:43.523Z,7.20
2019-02-11T13:13:12.492Z,7.10
2019-02-11T13:15:59.856Z,7.10
2019-02-11T13:18:12.035Z,7.10
2019-02-11T13:20:41.320Z,7.10
2019-02-11T13:23:10.431Z,7.10
2019-02-11T13:25:39.294Z,7.10
2019-02-11T13:28:08.179Z,7.20
2019-02-11T13:30:37.083Z,7.30
2019-02-11T13:33:06.210Z,7.40
2019-02-11T13:35:35.056Z,7.50
2019-02-11T13:38:03.878Z,7.50
2019-02-11T13:40:32.936Z,7.50
2019-02-11T13:43:01.787Z,7.40
2019-02-11T13:45:30.701Z,7.40
2019-02-11T13:48:00.083Z,7.30
2019-02-11T13:50:29.090Z,7.20
2019-02-11T13:52:58.382Z,7.20
2019-02-11T13:55:30.561Z,7.10
2019-02-11T13:57:58.528Z,7.10
2019-02-11T14:00:32.334Z,7.00
2019-02-11T14:03:02.723Z,7.00
2019-02-11T14:05:32.514Z,7.00
2019-02-11T14:08:02.324Z,7.00
2019-02-11T14:10:31.453Z,6.90
2019-02-11T14:13:00.663Z,6.90
2019-02-11T14:15:29.863Z,7.00
2019-02-11T14:18:11.530Z,7.00
2019-02-11T14:20:36.567Z,7.00
2019-02-11T14:23:05.910Z,7.00
2019-02-11T14:25:44.184Z,7.00
2019-02-11T14:28:05.969Z,7.00
2019-02-11T14:30:35.181Z,7.00
2019-02-11T14:33:04.676Z,7.00
2019-02-11T14:35:34.110Z,7.00
2019-02-11T14:38:03.321Z,6.90
2019-02-11T14:40:32.408Z,6.90
2019-02-11T14:43:01.282Z,6.90
2019-02-11T14:45:30.353Z,6.90
2019-02-11T14:47:59.155Z,6.80
2019-02-11T14:50:28.302Z,6.80
2019-02-11T14:52:57.125Z,6.80
2019-02-11T14:55:26.202Z,6.70
2019-02-11T14:57:55.048Z,6.70
2019-02-11T15:00:23.976Z,6.70
2019-02-11T15:03:11.766Z,6.60
2019-02-11T15:05:41.249Z,6.60
2019-02-11T15:08:10.491Z,6.60
2019-02-11T15:10:39.438Z,6.50
2019-02-11T15:13:08.765Z,6.50
2019-02-11T15:15:37.906Z,6.40
2019-02-11T15:18:07.765Z,6.30
2019-02-11T15:20:41.879Z,6.30
2019-02-11T15:23:12.487Z,6.20
2019-02-11T15:25:42.941Z,6.10
2019-02-11T15:28:11.787Z,6.10
2019-02-11T15:30:40.887Z,6.00
2019-02-11T15:33:10.129Z,6.00
2019-02-11T15:35:39.333Z,5.90
2019-02-11T15:38:08.409Z,5.90
2019-02-11T15:40:37.205Z,5.80
2019-02-11T15:43:06.027Z,5.80
2019-02-11T15:45:34.843Z,5.70
2019-02-11T15:48:03.954Z,5.70
2019-02-11T15:50:32.752Z,5.70
2019-02-11T15:53:01.569Z,5.60
2019-02-11T15:55:30.352Z,5.50
2019-02-11T15:57:59.137Z,5.50
2019-02-11T16:00:27.999Z,5.40
2019-02-11T16:02:56.779Z,5.40
2019-02-11T16:05:25.676Z,5.30
2019-02-11T16:07:54.754Z,5.30
2019-02-11T16:10:25.146Z,5.20
2019-02-11T16:12:54.024Z,5.20
2019-02-11T16:15:23.271Z,5.20
2019-02-11T16:17:52.495Z,5.10
2019-02-11T16:20:21.617Z,5.10
2019-02-11T16:22:50.443Z,5.00
2019-02-11T16:25:19.581Z,5.00
2019-02-11T16:27:48.538Z,5.00
2019-02-11T16:30:18.268Z,4.90
2019-02-11T16:32:47.540Z,4.90
2019-02-11T16:35:16.932Z,4.90
2019-02-11T16:37:45.910Z,4.80
2019-02-11T16:40:17.204Z,4.80
2019-02-11T16:42:46.062Z,4.80
2019-02-11T16:45:15.233Z,4.80
2019-02-11T16:47:44.387Z,4.70
2019-02-11T16:50:13.914Z,4.80
2019-02-11T16:52:42.844Z,4.80
2019-02-11T16:55:11.935Z,4.90
2019-02-11T16:57:40.821Z,4.90
2019-02-11T17:00:12.102Z,4.90
2019-02-11T17:02:41.015Z,4.90
2019-02-11T17:05:10.374Z,4.90
2019-02-11T17:07:41.937Z,4.90
2019-02-11T17:10:11.062Z,4.90
2019-02-11T17:12:40.030Z,4.90
2019-02-11T17:15:11.162Z,4.80
2019-02-11T17:17:39.965Z,4.80
2019-02-11T17:20:10.156Z,4.70
2019-02-11T17:22:39.087Z,4.70
2019-02-11T17:25:08.704Z,4.70
2019-02-11T17:27:37.558Z,4.80
2019-02-11T17:30:08.951Z,4.80
2019-02-11T17:32:37.868Z,4.80
2019-02-11T17:35:11.013Z,4.80
2019-02-11T17:37:39.960Z,4.80
2019-02-11T17:40:11.740Z,4.80
2019-02-11T17:42:40.871Z,4.70
2019-02-11T17:45:12.765Z,4.60
2019-02-11T17:47:41.686Z,4.60
2019-02-11T17:50:11.271Z,4.70
2019-02-11T17:52:40.500Z,4.70
2019-02-11T17:55:10.371Z,4.70
2019-02-11T17:57:39.621Z,4.80
2019-02-11T18:00:13.688Z,4.80
2019-02-11T18:02:42.571Z,4.80
2019-02-11T18:05:11.422Z,4.80
2019-02-11T18:07:40.239Z,4.80
2019-02-11T18:10:09.458Z,4.80
2019-02-11T18:12:38.253Z,4.90
2019-02-11T18:15:08.087Z,4.90
2019-02-11T18:17:36.907Z,4.90
2019-02-11T18:20:06.436Z,4.90
2019-02-11T18:22:35.441Z,4.90
2019-02-11T18:25:04.542Z,4.90
2019-02-11T18:27:34.639Z,4.80
2019-02-11T18:30:06.343Z,4.80
2019-02-11T18:32:35.457Z,4.80
2019-02-11T18:35:05.287Z,4.80
2019-02-11T18:37:34.236Z,4.80
2019-02-11T18:40:03.663Z,4.70
2019-02-11T18:42:32.920Z,4.70
2019-02-11T18:45:02.388Z,4.70
2019-02-11T18:47:31.229Z,4.70
2019-02-11T18:50:00.051Z,4.60
2019-02-11T18:52:29.021Z,4.60
2019-02-11T18:54:58.038Z,4.60
2019-02-11T18:57:26.941Z,4.50
2019-02-11T18:59:56.242Z,4.50
2019-02-11T19:02:25.082Z,4.60
2019-02-11T19:04:54.622Z,4.60
2019-02-11T19:07:23.824Z,4.60
2019-02-11T19:09:52.593Z,4.60
2019-02-11T19:12:21.703Z,4.60
2019-02-11T19:14:50.888Z,4.60
2019-02-11T19:17:20.248Z,4.60
2019-02-11T19:19:49.122Z,4.60
2019-02-11T19:22:17.990Z,4.60
2019-02-11T19:24:46.958Z,4.50
2019-02-11T19:27:16.050Z,4.50
2019-02-11T19:29:45.102Z,4.40
2019-02-11T19:32:15.935Z,4.40
2019-02-11T19:34:44.851Z,4.30
2019-02-11T19:37:13.861Z,4.20
2019-02-11T19:39:42.868Z,4.20
2019-02-11T19:42:12.157Z,4.10
2019-02-11T19:44:41.282Z,4.10
2019-02-11T19:47:10.452Z,4.00
2019-02-11T19:49:39.318Z,4.00
2019-02-11T19:52:08.339Z,3.90
2019-02-11T19:54:37.553Z,3.90
2019-02-11T19:57:06.418Z,3.90
2019-02-11T19:59:35.812Z,3.90
2019-02-11T20:02:04.740Z,3.80
2019-02-11T20:04:34.138Z,3.70
2019-02-11T20:07:03.163Z,3.70
2019-02-11T20:09:33.059Z,3.70
2019-02-11T20:12:02.087Z,3.70
2019-02-11T20:14:30.875Z,3.70
2019-02-11T20:16:59.693Z,3.60
2019-02-11T20:19:28.478Z,3.60
2019-02-11T20:21:57.630Z,3.60
2019-02-11T20:24:26.515Z,3.50
2019-02-11T20:26:55.600Z,3.60
2019-02-11T20:29:24.679Z,3.60
2019-02-11T20:31:53.853Z,3.50
2019-02-11T20:34:23.016Z,3.50
2019-02-11T20:36:51.952Z,3.50
2019-02-11T20:39:21.028Z,3.50
2019-02-11T20:41:49.892Z,3.50
2019-02-11T20:44:18.686Z,3.50
2019-02-11T20:46:48.037Z,3.50
2019-02-11T20:49:16.871Z,3.60
2019-02-11T20:51:45.949Z,3.60
2019-02-11T20:54:14.795Z,3.60
2019-02-11T20:56:43.574Z,3.60
2019-02-11T20:59:12.649Z,3.70
2019-02-11T21:01:41.740Z,3.80
2019-02-11T21:04:11.734Z,3.90
2019-02-11T21:06:40.595Z,3.90
2019-02-11T21:09:09.834Z,3.90
2019-02-11T21:11:38.901Z,4.00
2019-02-11T21:14:07.992Z,4.00
2019-02-11T21:16:36.948Z,4.00
2019-02-11T21:19:05.807Z,3.90
2019-02-11T21:21:34.946Z,3.90
2019-02-11T21:24:04.046Z,3.80
2019-02-11T21:26:32.814Z,3.80
2019-02-11T21:29:01.949Z,3.70
2019-02-11T21:31:31.126Z,3.70
2019-02-11T21:33:59.987Z,3.60
2019-02-11T21:36:28.799Z,3.60
2019-02-11T21:38:57.581Z,3.60
2019-02-11T21:41:26.465Z,3.50
2019-02-11T21:43:55.235Z,3.50
2019-02-11T21:46:24.141Z,3.50
2019-02-11T21:48:52.933Z,3.50
2019-02-11T21:51:21.712Z,3.40
2019-02-11T21:53:50.460Z,3.40
2019-02-11T21:56:19.240Z,3.40
2019-02-11T21:58:48.321Z,3.40
2019-02-11T22:01:17.140Z,3.40
2019-02-11T22:03:45.931Z,3.50
2019-02-11T22:06:15.099Z,3.50
2019-02-11T22:08:43.896Z,3.50
2019-02-11T22:11:12.688Z,3.50
2019-02-11T22:13:41.722Z,3.60
2019-02-11T22:16:10.720Z,3.70
2019-02-11T22:18:39.562Z,3.70
2019-02-11T22:21:08.384Z,3.80
2019-02-11T22:23:37.149Z,3.90
2019-02-11T22:26:06.221Z,3.90
2019-02-11T22:28:35.044Z,3.90
2019-02-11T22:31:04.188Z,4.00
2019-02-11T22:33:33.385Z,4.00
2019-02-11T22:36:02.204Z,4.00
2019-02-11T22:38:31.530Z,4.00
2019-02-11T22:41:00.343Z,4.00
2019-02-11T22:43:29.377Z,4.00
2019-02-11T22:45:58.182Z,4.10
2019-02-11T22:48:27.242Z,4.00
2019-02-11T22:50:55.992Z,4.10
2019-02-11T22:53:25.108Z,4.10
2019-02-11T22:55:54.183Z,4.10
2019-02-11T22:58:23.071Z,4.10
2019-02-11T23:01:04.124Z,4.10
2019-02-11T23:03:35.109Z,4.10
2019-02-11T23:06:04.428Z,4.10
2019-02-11T23:08:33.487Z,4.10
2019-02-11T23:11:02.294Z,4.20
2019-02-11T23:13:31.832Z,4.20
2019-02-11T23:16:00.818Z,4.20
2019-02-11T23:18:29.686Z,4.20
2019-02-11T23:20:58.631Z,4.20
2019-02-11T23:23:28.775Z,4.20
2019-02-11T23:25:57.716Z,4.20
2019-02-11T23:28:26.604Z,4.10
2019-02-11T23:30:55.760Z,4.10
2019-02-11T23:33:24.869Z,4.10
2019-02-11T23:35:53.830Z,4.10
2019-02-11T23:38:22.962Z,4.00
2019-02-11T23:40:52.137Z,4.00
2019-02-11T23:43:21.406Z,4.00
2019-02-11T23:45:50.479Z,4.00
2019-02-11T23:48:19.481Z,4.00
2019-02-11T23:50:48.283Z,4.10
2019-02-11T23:53:17.186Z,4.10
2019-02-11T23:55:46.376Z,4.10
2019-02-11T23:58:15.242Z,4.10
